Time;durP1;ratioP1;P1;durP2;ratioP2;P2;SDS_P1;SDS_P2;PMS_P1;PMS_P2;Temp;Humidity;BMP_temperature;BMP_pressure;BME280_temperature;BME280_humidity;BME280_pressure;Samples;Min_cycle;Max_cycle;Signal;HPM_P1;HPM_P2
2021/07/06 00:02:44;;;;;;;5.22;2.70;;;;;;;;;;4952628;28;20520;-85
2021/07/06 00:05:29;;;;;;;4.63;2.08;;;;;;;;;;4955292;28;20019;-85
2021/07/06 00:08:14;;;;;;;6.18;2.33;;;;;;;;;;4951798;28;20086;-84
2021/07/06 00:10:59;;;;;;;3.92;2.42;;;;;;;;;;4954675;28;20478;-85
2021/07/06 00:13:44;;;;;;;4.97;2.28;;;;;;;;;;4954502;28;20586;-86
2021/07/06 00:16:30;;;;;;;5.25;2.40;;;;;;;;;;4956785;28;20023;-85
2021/07/06 00:19:15;;;;;;;6.13;2.10;;;;;;;;;;4952659;28;20022;-85
2021/07/06 00:22:00;;;;;;;4.38;2.10;;;;;;;;;;4949007;28;20630;-86
2021/07/06 00:24:46;;;;;;;4.70;2.00;;;;;;;;;;4954783;28;20119;-86
2021/07/06 00:27:31;;;;;;;3.80;2.15;;;;;;;;;;4953938;28;20046;-87
2021/07/06 00:30:17;;;;;;;3.88;1.95;;;;;;;;;;4955686;28;20070;-85
2021/07/06 00:33:02;;;;;;;2.55;2.03;;;;;;;;;;4952799;28;20023;-86
2021/07/06 00:35:48;;;;;;;4.38;2.42;;;;;;;;;;4954581;28;20892;-84
2021/07/06 00:38:33;;;;;;;7.57;2.25;;;;;;;;;;4955215;28;20026;-85
2021/07/06 00:41:18;;;;;;;2.45;1.83;;;;;;;;;;4956342;28;20037;-85
2021/07/06 00:44:03;;;;;;;5.20;2.38;;;;;;;;;;4955397;28;20096;-86
2021/07/06 00:46:49;;;;;;;3.90;2.40;;;;;;;;;;4973375;28;20557;-86
2021/07/06 00:49:35;;;;;;;5.07;2.08;;;;;;;;;;4955482;28;20030;-86
2021/07/06 00:52:20;;;;;;;2.72;2.13;;;;;;;;;;4958497;28;20023;-86
2021/07/06 00:55:05;;;;;;;3.05;2.08;;;;;;;;;;4954016;28;20034;-86
2021/07/06 00:57:51;;;;;;;3.15;2.03;;;;;;;;;;4953700;28;20034;-86
2021/07/06 01:00:36;;;;;;;2.80;2.35;;;;;;;;;;4950572;28;20034;-84
2021/07/06 01:03:22;;;;;;;3.83;2.40;;;;;;;;;;4958145;28;20102;-84
2021/07/06 01:06:07;;;;;;;4.30;2.40;;;;;;;;;;4955218;28;20050;-84
2021/07/06 01:08:53;;;;;;;3.70;2.50;;;;;;;;;;4944888;28;20393;-86
2021/07/06 01:11:38;;;;;;;6.88;2.28;;;;;;;;;;4969955;28;20023;-86
2021/07/06 01:14:23;;;;;;;5.28;2.30;;;;;;;;;;4953674;28;20065;-86
2021/07/06 01:17:08;;;;;;;3.97;2.08;;;;;;;;;;4956530;28;20115;-85
2021/07/06 01:19:54;;;;;;;3.83;2.30;;;;;;;;;;4953819;28;20031;-87
2021/07/06 01:22:40;;;;;;;4.70;2.55;;;;;;;;;;4954477;28;20025;-87
2021/07/06 01:25:25;;;;;;;4.85;2.70;;;;;;;;;;4954495;28;20433;-86
2021/07/06 01:28:10;;;;;;;5.13;2.28;;;;;;;;;;4954678;28;20043;-86
2021/07/06 01:30:55;;;;;;;3.17;2.00;;;;;;;;;;4946636;28;20019;-86
2021/07/06 01:33:41;;;;;;;3.05;2.20;;;;;;;;;;4952866;28;20081;-85
2021/07/06 01:36:26;;;;;;;3.90;1.95;;;;;;;;;;4943306;29;20035;-85
2021/07/06 01:39:11;;;;;;;3.83;2.33;;;;;;;;;;4949149;28;20041;-86
2021/07/06 01:41:57;;;;;;;4.45;2.30;;;;;;;;;;4949657;28;20038;-86
2021/07/06 01:44:42;;;;;;;4.22;2.45;;;;;;;;;;4949534;28;20056;-87
2021/07/06 01:47:28;;;;;;;5.07;2.30;;;;;;;;;;4950225;28;20037;-86
2021/07/06 01:50:15;;;;;;;4.32;2.20;;;;;;;;;;4951372;29;20079;-85
2021/07/06 01:53:01;;;;;;;5.10;2.45;;;;;;;;;;4948357;28;20034;-87
2021/07/06 01:55:47;;;;;;;3.90;2.17;;;;;;;;;;4937775;29;20027;-84
2021/07/06 01:58:33;;;;;;;9.02;2.80;;;;;;;;;;4950732;28;20038;-85
2021/07/06 02:01:18;;;;;;;3.72;2.58;;;;;;;;;;4945688;29;20023;-84
2021/07/06 02:04:05;;;;;;;6.90;2.53;;;;;;;;;;4937697;28;20027;-84
2021/07/06 02:06:50;;;;;;;6.13;2.45;;;;;;;;;;4947532;29;20027;-85
2021/07/06 02:09:35;;;;;;;4.22;2.58;;;;;;;;;;4949914;28;20027;-84
2021/07/06 02:12:20;;;;;;;4.75;2.67;;;;;;;;;;4946683;29;20050;-84
2021/07/06 02:15:07;;;;;;;4.13;2.17;;;;;;;;;;4934779;28;20121;-84
2021/07/06 02:17:52;;;;;;;4.68;2.35;;;;;;;;;;4949157;28;20031;-87
2021/07/06 02:20:38;;;;;;;3.33;2.30;;;;;;;;;;4948612;29;20027;-86
2021/07/06 02:23:24;;;;;;;5.05;2.20;;;;;;;;;;4948086;28;20390;-86
2021/07/06 02:26:09;;;;;;;5.93;2.42;;;;;;;;;;4951230;29;20551;-85
2021/07/06 02:28:54;;;;;;;4.38;2.47;;;;;;;;;;4920888;29;20375;-85
2021/07/06 02:31:39;;;;;;;5.97;2.75;;;;;;;;;;4927389;29;20024;-85
2021/07/06 02:34:25;;;;;;;3.22;2.30;;;;;;;;;;4931769;29;20483;-86
2021/07/06 02:37:10;;;;;;;9.27;2.40;;;;;;;;;;4930847;29;20032;-86
2021/07/06 02:39:55;;;;;;;5.20;2.50;;;;;;;;;;4936448;29;20046;-86
2021/07/06 02:42:41;;;;;;;7.50;3.20;;;;;;;;;;4927815;29;20027;-85
2021/07/06 02:45:26;;;;;;;2.75;2.08;;;;;;;;;;4916377;29;20032;-85
2021/07/06 02:48:12;;;;;;;6.93;2.58;;;;;;;;;;4919711;29;20031;-85
2021/07/06 02:50:57;;;;;;;4.68;2.20;;;;;;;;;;4933563;29;20032;-84
2021/07/06 02:53:42;;;;;;;2.60;2.20;;;;;;;;;;4929513;29;20103;-85
2021/07/06 02:56:28;;;;;;;3.85;2.30;;;;;;;;;;4931739;29;20491;-85
2021/07/06 02:59:13;;;;;;;4.10;2.53;;;;;;;;;;4934781;29;20039;-84
2021/07/06 03:02:01;;;;;;;5.53;2.53;;;;;;;;;;4930648;29;20034;-86
2021/07/06 03:04:46;;;;;;;5.72;2.40;;;;;;;;;;4915440;29;20031;-85
2021/07/06 03:07:31;;;;;;;5.93;2.80;;;;;;;;;;4915644;29;20075;-84
2021/07/06 03:10:24;;;;;;;4.50;2.55;;;;;;;;;;4929097;29;20293;-86
2021/07/06 03:13:09;;;;;;;3.65;2.38;;;;;;;;;;4931564;29;20398;-84
2021/07/06 03:15:55;;;;;;;2.97;2.13;;;;;;;;;;4929398;29;20491;-84
2021/07/06 03:18:40;;;;;;;8.00;2.40;;;;;;;;;;4917058;29;20019;-85
2021/07/06 03:21:26;;;;;;;5.03;2.75;;;;;;;;;;4930469;29;20146;-87
2021/07/06 03:24:11;;;;;;;6.88;2.70;;;;;;;;;;4936487;29;20059;-86
2021/07/06 03:26:57;;;;;;;4.97;2.33;;;;;;;;;;4937047;28;20045;-85
2021/07/06 03:29:42;;;;;;;3.90;2.35;;;;;;;;;;4952525;28;20088;-85
2021/07/06 03:32:27;;;;;;;6.95;2.45;;;;;;;;;;4955836;28;20026;-85
2021/07/06 03:35:12;;;;;;;4.70;2.08;;;;;;;;;;4952796;28;20022;-85
2021/07/06 03:37:58;;;;;;;5.30;2.40;;;;;;;;;;4954953;28;20062;-86
2021/07/06 03:40:45;;;;;;;4.15;2.67;;;;;;;;;;4952566;28;20015;-87
2021/07/06 03:43:30;;;;;;;4.30;2.42;;;;;;;;;;4953709;28;20044;-86
2021/07/06 03:46:16;;;;;;;6.07;2.47;;;;;;;;;;4952519;28;20031;-85
2021/07/06 03:49:02;;;;;;;4.10;2.42;;;;;;;;;;4968967;28;20031;-86
2021/07/06 03:51:47;;;;;;;5.55;3.03;;;;;;;;;;4951800;28;20478;-87
2021/07/06 03:54:32;;;;;;;5.50;2.25;;;;;;;;;;4954478;28;20426;-87
2021/07/06 03:57:28;;;;;;;4.75;2.15;;;;;;;;;;4939172;28;20034;-85
2021/07/06 04:00:15;;;;;;;6.78;2.80;;;;;;;;;;4951376;28;20406;-86
2021/07/06 04:03:00;;;;;;;4.57;2.80;;;;;;;;;;4952476;28;20539;-85
2021/07/06 04:05:45;;;;;;;5.05;2.47;;;;;;;;;;4951829;28;20441;-86
2021/07/06 04:08:30;;;;;;;3.17;2.00;;;;;;;;;;4957142;28;20448;-85
2021/07/06 04:11:15;;;;;;;6.97;2.70;;;;;;;;;;4953074;28;20366;-84
2021/07/06 04:14:01;;;;;;;3.85;2.35;;;;;;;;;;4957592;28;20118;-85
2021/07/06 04:16:46;;;;;;;7.93;2.38;;;;;;;;;;4957055;28;20027;-85
2021/07/06 04:19:31;;;;;;;4.15;2.30;;;;;;;;;;4959679;28;20445;-84
2021/07/06 04:22:16;;;;;;;4.88;2.25;;;;;;;;;;4957559;28;20452;-84
2021/07/06 04:25:02;;;;;;;4.50;2.38;;;;;;;;;;4958164;28;20061;-85
2021/07/06 04:27:48;;;;;;;4.55;2.25;;;;;;;;;;4956500;28;20449;-85
2021/07/06 04:30:33;;;;;;;3.65;2.25;;;;;;;;;;4956451;28;20038;-85
2021/07/06 04:33:18;;;;;;;6.32;3.03;;;;;;;;;;4956495;28;20022;-85
2021/07/06 04:36:04;;;;;;;4.07;2.30;;;;;;;;;;4957066;28;20054;-85
2021/07/06 04:38:49;;;;;;;6.95;2.50;;;;;;;;;;4956557;28;20114;-82
2021/07/06 04:41:34;;;;;;;3.75;2.28;;;;;;;;;;4955613;28;20033;-84
2021/07/06 04:44:19;;;;;;;6.72;2.50;;;;;;;;;;4956367;28;20488;-84
2021/07/06 04:47:05;;;;;;;7.68;2.47;;;;;;;;;;4962454;28;20046;-85
2021/07/06 04:49:50;;;;;;;4.57;2.17;;;;;;;;;;4962634;28;20053;-84
2021/07/06 04:52:35;;;;;;;7.40;2.42;;;;;;;;;;4963265;28;20058;-83
2021/07/06 04:55:21;;;;;;;8.10;2.30;;;;;;;;;;4956976;28;20560;-85
2021/07/06 04:58:06;;;;;;;5.80;2.55;;;;;;;;;;4954197;28;20037;-86
2021/07/06 05:00:51;;;;;;;6.43;2.42;;;;;;;;;;4960248;28;20031;-86
2021/07/06 05:03:37;;;;;;;6.47;2.60;;;;;;;;;;4958745;28;20351;-86
2021/07/06 05:06:22;;;;;;;5.80;2.50;;;;;;;;;;4958060;28;20046;-81
2021/07/06 05:09:08;;;;;;;4.05;2.25;;;;;;;;;;4958280;28;20039;-89
2021/07/06 05:11:53;;;;;;;5.38;2.17;;;;;;;;;;4969803;28;20027;-89
2021/07/06 05:14:41;;;;;;;5.78;2.65;;;;;;;;;;4973922;28;20059;-89
2021/07/06 05:17:27;;;;;;;7.18;2.28;;;;;;;;;;4975167;28;20057;-90
2021/07/06 05:20:12;;;;;;;3.92;2.38;;;;;;;;;;4963775;28;20023;-85
2021/07/06 05:22:57;;;;;;;7.05;2.58;;;;;;;;;;4963024;28;20165;-86
2021/07/06 05:25:43;;;;;;;5.53;2.50;;;;;;;;;;4951876;28;20030;-84
2021/07/06 05:28:29;;;;;;;5.10;2.60;;;;;;;;;;4957506;28;20046;-88
2021/07/06 05:31:15;;;;;;;5.75;2.55;;;;;;;;;;4956292;28;20426;-84
2021/07/06 05:34:00;;;;;;;5.75;2.10;;;;;;;;;;4954841;28;20030;-83
2021/07/06 05:36:47;;;;;;;11.45;2.42;;;;;;;;;;4954313;28;20483;-83
2021/07/06 05:39:32;;;;;;;3.03;2.10;;;;;;;;;;4958212;28;20038;-83
2021/07/06 05:42:18;;;;;;;3.70;2.45;;;;;;;;;;4956772;28;20130;-83
2021/07/06 05:45:04;;;;;;;5.18;2.47;;;;;;;;;;4940752;28;20596;-82
2021/07/06 05:47:49;;;;;;;5.47;2.03;;;;;;;;;;4959524;28;20022;-85
2021/07/06 05:50:34;;;;;;;6.70;2.55;;;;;;;;;;4958794;28;20528;-88
2021/07/06 05:53:20;;;;;;;4.85;2.33;;;;;;;;;;4958077;28;20023;-86
2021/07/06 05:56:05;;;;;;;3.45;2.33;;;;;;;;;;4940011;28;20058;-84
2021/07/06 05:58:50;;;;;;;6.38;2.72;;;;;;;;;;4974185;28;20089;-88
2021/07/06 06:01:36;;;;;;;4.38;2.65;;;;;;;;;;4955802;28;20039;-89
2021/07/06 06:04:21;;;;;;;4.10;2.38;;;;;;;;;;4947630;28;20034;-85
2021/07/06 06:07:07;;;;;;;7.85;2.67;;;;;;;;;;4951721;28;20031;-84
2021/07/06 06:09:52;;;;;;;8.50;2.95;;;;;;;;;;4958759;28;20066;-84
2021/07/06 06:12:38;;;;;;;6.10;2.40;;;;;;;;;;4958278;28;20393;-87
2021/07/06 06:15:23;;;;;;;9.90;3.17;;;;;;;;;;4956703;28;20031;-84
2021/07/06 06:18:08;;;;;;;6.25;2.30;;;;;;;;;;4954213;28;20082;-85
2021/07/06 06:20:54;;;;;;;6.05;2.47;;;;;;;;;;4956106;28;20029;-85
2021/07/06 06:23:39;;;;;;;5.35;2.50;;;;;;;;;;4956332;28;20037;-86
2021/07/06 06:26:24;;;;;;;5.55;2.65;;;;;;;;;;4953041;28;20025;-85
2021/07/06 06:29:10;;;;;;;7.43;2.13;;;;;;;;;;4953125;28;20054;-86
2021/07/06 06:31:55;;;;;;;5.65;2.10;;;;;;;;;;4952365;28;20113;-87
2021/07/06 06:34:40;;;;;;;5.32;2.30;;;;;;;;;;4955308;28;20548;-87
2021/07/06 06:37:26;;;;;;;5.50;2.20;;;;;;;;;;4953982;28;20053;-83
2021/07/06 06:40:11;;;;;;;4.20;2.33;;;;;;;;;;4942862;28;20021;-86
2021/07/06 06:42:56;;;;;;;6.63;2.22;;;;;;;;;;4940282;28;20031;-84
2021/07/06 06:45:42;;;;;;;4.90;2.00;;;;;;;;;;4953956;28;20280;-83
2021/07/06 06:48:27;;;;;;;16.65;11.25;;;;;;;;;;4951561;28;20054;-82
2021/07/06 06:51:13;;;;;;;15.27;12.88;;;;;;;;;;4958404;28;20014;-82
2021/07/06 06:53:59;;;;;;;5.75;2.72;;;;;;;;;;4953281;28;20022;-83
2021/07/06 06:56:45;;;;;;;3.63;2.15;;;;;;;;;;4956319;28;20022;-84
2021/07/06 06:59:30;;;;;;;4.72;1.75;;;;;;;;;;4952231;28;20027;-83
2021/07/06 07:02:19;;;;;;;9.32;2.88;;;;;;;;;;4952593;28;20090;-83
2021/07/06 07:05:05;;;;;;;5.55;2.35;;;;;;;;;;4939646;28;20027;-82
2021/07/06 07:07:52;;;;;;;5.15;2.47;;;;;;;;;;4956326;28;20161;-82
2021/07/06 07:10:40;;;;;;;8.00;3.10;;;;;;;;;;4955327;28;20449;-83
2021/07/06 07:13:27;;;;;;;5.78;1.75;;;;;;;;;;4956779;28;20496;-84
2021/07/06 07:16:12;;;;;;;5.43;2.47;;;;;;;;;;4954703;28;20030;-83
2021/07/06 07:18:58;;;;;;;2.53;1.50;;;;;;;;;;4952352;28;20109;-82
2021/07/06 07:21:43;;;;;;;4.82;2.58;;;;;;;;;;4954252;28;20486;-81
2021/07/06 07:24:29;;;;;;;18.42;14.18;;;;;;;;;;4951413;28;20026;-80
2021/07/06 07:27:14;;;;;;;10.75;7.28;;;;;;;;;;4958551;28;20057;-82
2021/07/06 07:29:59;;;;;;;7.72;4.15;;;;;;;;;;4954689;28;20051;-82
2021/07/06 07:32:45;;;;;;;7.60;2.92;;;;;;;;;;4939545;28;20016;-82
2021/07/06 07:35:30;;;;;;;6.65;2.17;;;;;;;;;;4954460;28;20031;-84
2021/07/06 07:38:15;;;;;;;10.65;3.20;;;;;;;;;;4959849;28;20022;-83
2021/07/06 07:41:01;;;;;;;5.68;2.20;;;;;;;;;;4952357;28;20026;-82
2021/07/06 07:43:49;;;;;;;4.90;1.58;;;;;;;;;;4942496;28;20105;-83
2021/07/06 07:46:34;;;;;;;4.22;2.22;;;;;;;;;;4952806;28;20452;-83
2021/07/06 07:49:19;;;;;;;4.10;2.25;;;;;;;;;;4952999;28;20055;-79
2021/07/06 07:52:05;;;;;;;7.28;1.90;;;;;;;;;;4954355;28;20382;-82
2021/07/06 07:54:50;;;;;;;4.32;2.20;;;;;;;;;;4954017;28;20050;-82
2021/07/06 07:57:35;;;;;;;4.03;1.90;;;;;;;;;;4955979;28;20039;-83
2021/07/06 08:00:20;;;;;;;2.63;1.55;;;;;;;;;;4937392;28;20038;-84
2021/07/06 08:03:06;;;;;;;7.18;2.78;;;;;;;;;;4942259;28;20014;-82
2021/07/06 08:05:51;;;;;;;4.38;3.28;;;;;;;;;;4951947;28;20061;-83
2021/07/06 08:08:36;;;;;;;4.28;2.33;;;;;;;;;;4955283;28;20030;-83
2021/07/06 08:11:22;;;;;;;2.42;1.63;;;;;;;;;;4952046;28;20525;-82
2021/07/06 08:14:07;;;;;;;6.63;1.92;;;;;;;;;;4956479;28;20023;-83
2021/07/06 08:16:54;;;;;;;3.47;2.30;;;;;;;;;;4934460;28;20037;-83
2021/07/06 08:19:39;;;;;;;4.40;2.55;;;;;;;;;;4956358;28;20023;-83
2021/07/06 08:22:25;;;;;;;3.40;1.70;;;;;;;;;;4954188;28;20149;-83
2021/07/06 08:25:10;;;;;;;4.30;2.00;;;;;;;;;;4956089;28;20038;-84
2021/07/06 08:27:55;;;;;;;6.75;2.20;;;;;;;;;;4952245;28;20061;-83
2021/07/06 08:30:41;;;;;;;2.67;1.40;;;;;;;;;;4952949;28;20031;-82
2021/07/06 08:33:26;;;;;;;4.50;2.17;;;;;;;;;;4953509;28;20489;-82
2021/07/06 08:36:11;;;;;;;1.35;1.20;;;;;;;;;;4954299;28;20376;-82
2021/07/06 08:39:06;;;;;;;4.72;1.52;;;;;;;;;;4950135;28;20037;-78
2021/07/06 08:41:51;;;;;;;2.28;1.58;;;;;;;;;;4948221;28;20023;-82
2021/07/06 08:44:37;;;;;;;4.28;1.80;;;;;;;;;;4954246;28;20121;-82
2021/07/06 08:47:23;;;;;;;4.25;1.58;;;;;;;;;;4949921;28;20097;-85
2021/07/06 08:50:10;;;;;;;2.47;1.40;;;;;;;;;;4952032;28;20042;-83
2021/07/06 08:52:55;;;;;;;4.05;1.88;;;;;;;;;;4952033;28;20018;-86
2021/07/06 08:55:40;;;;;;;3.17;1.10;;;;;;;;;;4959014;28;20069;-92
2021/07/06 08:58:26;;;;;;;5.68;2.22;;;;;;;;;;4957349;28;20088;-87
2021/07/06 09:01:12;;;;;;;7.75;2.50;;;;;;;;;;4943692;28;20022;-88
2021/07/06 09:04:02;;;;;;;4.68;1.90;;;;;;;;;;4942776;28;20041;-89
2021/07/06 09:06:57;;;;;;;3.88;1.48;;;;;;;;;;4954892;28;20085;-90
2021/07/06 09:09:43;;;;;;;5.65;2.10;;;;;;;;;;4957268;28;20134;-90
2021/07/06 09:12:34;;;;;;;10.90;1.77;;;;;;;;;;4958992;28;20034;-90
2021/07/06 09:15:24;;;;;;;3.97;1.75;;;;;;;;;;4959632;28;20022;-89
2021/07/06 09:18:15;;;;;;;2.13;1.45;;;;;;;;;;4957324;28;20078;-89
2021/07/06 09:24:23;;;;;;;3.47;1.50;;;;;;;;;;4972265;28;20058;-89
2021/07/06 09:27:26;;;;;;;4.78;1.83;;;;;;;;;;4960124;28;20038;-88
2021/07/06 09:30:19;;;;;;;3.65;1.70;;;;;;;;;;4960637;28;20086;-89
2021/07/06 09:33:04;;;;;;;3.80;1.80;;;;;;;;;;4960256;28;20109;-89
2021/07/06 09:35:53;;;;;;;3.88;1.90;;;;;;;;;;4956501;28;20089;-89
2021/07/06 09:40:00;;;;;;;4.90;1.92;;;;;;;;;;4948123;28;20142;-93
2021/07/06 09:42:43;;;;;;;3.20;1.23;;;;;;;;;;4960081;28;20086;-94
2021/07/06 09:45:52;;;;;;;2.67;1.20;;;;;;;;;;4945800;28;20103;-91
2021/07/06 09:48:47;;;;;;;3.20;1.38;;;;;;;;;;4948149;28;20062;-93
2021/07/06 09:51:53;;;;;;;4.95;1.83;;;;;;;;;;4946960;28;20094;-92
2021/07/06 09:54:58;;;;;;;2.28;1.55;;;;;;;;;;4952581;28;20119;-90
2021/07/06 09:57:50;;;;;;;3.03;1.00;;;;;;;;;;4956992;28;20027;-87
2021/07/06 10:00:38;;;;;;;2.20;0.75;;;;;;;;;;4946968;28;20485;-90
2021/07/06 10:03:24;;;;;;;4.47;1.00;;;;;;;;;;4958885;28;20065;-87
2021/07/06 10:06:10;;;;;;;1.15;1.05;;;;;;;;;;4954792;28;20098;-87
2021/07/06 10:08:56;;;;;;;1.20;0.77;;;;;;;;;;4955741;28;20720;-86
2021/07/06 10:11:42;;;;;;;2.50;1.05;;;;;;;;;;4949005;28;20034;-87
2021/07/06 10:14:27;;;;;;;4.78;0.88;;;;;;;;;;4959893;28;20029;-87
2021/07/06 10:17:13;;;;;;;1.00;0.77;;;;;;;;;;4948451;28;20070;-87
2021/07/06 10:20:03;;;;;;;0.73;0.65;;;;;;;;;;4957636;28;20027;-88
2021/07/06 10:22:52;;;;;;;0.60;0.60;;;;;;;;;;4955138;28;20064;-90
2021/07/06 10:25:38;;;;;;;;;;;;;;;;;;4958730;28;20033;-88
2021/07/06 10:28:25;;;;;;;12.25;9.10;;;;;;;;;;4957461;28;20424;-91
2021/07/06 10:31:15;;;;;;;0.88;0.77;;;;;;;;;;4955553;28;20038;-87
2021/07/06 10:34:17;;;;;;;1.67;0.65;;;;;;;;;;4957153;28;20038;-87
2021/07/06 10:37:04;;;;;;;0.75;0.50;;;;;;;;;;4951974;28;20073;-87
2021/07/06 10:39:49;;;;;;;3.22;0.70;;;;;;;;;;4944015;28;20027;-90
2021/07/06 10:42:41;;;;;;;1.00;0.75;;;;;;;;;;4958655;28;20037;-89
2021/07/06 10:45:33;;;;;;;0.65;0.65;;;;;;;;;;4955517;28;20085;-89
2021/07/06 10:48:41;;;;;;;1.33;0.88;;;;;;;;;;4944481;28;20548;-92
2021/07/06 10:51:39;;;;;;;1.58;1.08;;;;;;;;;;4959687;28;20039;-88
2021/07/06 10:54:26;;;;;;;3.63;0.90;;;;;;;;;;4952879;28;20427;-87
2021/07/06 10:57:11;;;;;;;1.83;0.77;;;;;;;;;;4956319;28;20057;-87
2021/07/06 10:59:57;;;;;;;1.48;0.60;;;;;;;;;;4952542;28;20117;-89
2021/07/06 11:02:42;;;;;;;1.17;0.70;;;;;;;;;;4955626;28;20034;-90
2021/07/06 11:05:57;;;;;;;2.90;0.80;;;;;;;;;;5035289;23;20484;-89
2021/07/06 11:08:45;;;;;;;0.70;0.70;;;;;;;;;;4953385;28;20039;-85
2021/07/06 11:11:34;;;;;;;1.67;0.60;;;;;;;;;;4955571;28;20073;-82
2021/07/06 11:14:20;;;;;;;1.23;0.70;;;;;;;;;;4952438;28;20062;-82
2021/07/06 11:17:05;;;;;;;0.95;0.60;;;;;;;;;;4953090;28;20031;-85
2021/07/06 11:19:57;;;;;;;2.45;0.60;;;;;;;;;;4951423;28;20038;-87
2021/07/06 11:22:43;;;;;;;1.40;0.90;;;;;;;;;;4955546;28;20030;-88
2021/07/06 11:25:34;;;;;;;4.93;0.75;;;;;;;;;;4956608;28;20042;-87
2021/07/06 11:28:26;;;;;;;0.55;0.50;;;;;;;;;;4951047;28;20026;-87
2021/07/06 11:31:16;;;;;;;0.98;0.55;;;;;;;;;;4950824;28;20026;-86
2021/07/06 11:34:17;;;;;;;0.65;0.60;;;;;;;;;;4945432;28;20022;-86
2021/07/06 11:37:03;;;;;;;0.60;0.60;;;;;;;;;;4955290;28;20022;-87
2021/07/06 11:39:50;;;;;;;2.10;1.00;;;;;;;;;;4953343;28;20053;-91
2021/07/06 11:42:40;;;;;;;3.13;1.00;;;;;;;;;;4936841;28;20034;-87
2021/07/06 11:45:26;;;;;;;0.93;0.60;;;;;;;;;;4938949;28;20026;-88
2021/07/06 11:48:15;;;;;;;2.40;0.90;;;;;;;;;;4955967;28;20015;-89
2021/07/06 11:51:03;;;;;;;2.85;1.33;;;;;;;;;;4955471;28;20066;-90
2021/07/06 11:53:55;;;;;;;0.65;0.52;;;;;;;;;;4956563;28;20390;-90
2021/07/06 11:56:43;;;;;;;1.85;0.70;;;;;;;;;;4956697;28;20118;-88
2021/07/06 11:59:31;;;;;;;1.33;0.65;;;;;;;;;;4951739;28;20019;-91
2021/07/06 12:02:17;;;;;;;1.00;0.90;;;;;;;;;;4956175;28;20059;-90
2021/07/06 12:05:12;;;;;;;2.20;1.27;;;;;;;;;;4942968;29;20458;-85
2021/07/06 12:08:10;;;;;;;0.98;0.70;;;;;;;;;;4936173;29;20114;-90
2021/07/06 12:11:01;;;;;;;1.23;0.80;;;;;;;;;;4936494;29;20078;-87
2021/07/06 12:13:49;;;;;;;0.68;0.50;;;;;;;;;;4914487;29;20034;-87
2021/07/06 12:16:36;;;;;;;0.82;0.70;;;;;;;;;;4931199;29;20019;-85
2021/07/06 12:19:21;;;;;;;0.80;0.70;;;;;;;;;;4938021;29;20070;-83
2021/07/06 12:22:07;;;;;;;0.70;0.70;;;;;;;;;;4936436;29;20470;-85
2021/07/06 12:24:53;;;;;;;0.75;0.73;;;;;;;;;;4935981;29;20050;-84
2021/07/06 12:27:38;;;;;;;2.00;1.05;;;;;;;;;;4933281;29;20445;-84
2021/07/06 12:30:24;;;;;;;1.70;0.70;;;;;;;;;;4935767;29;20114;-85
2021/07/06 12:33:09;;;;;;;2.53;0.77;;;;;;;;;;4918575;29;20055;-83
2021/07/06 12:35:55;;;;;;;2.15;0.70;;;;;;;;;;4933816;29;20058;-84
2021/07/06 12:38:40;;;;;;;1.73;0.90;;;;;;;;;;4939569;29;20024;-83
2021/07/06 12:41:25;;;;;;;0.77;0.70;;;;;;;;;;4933726;29;20065;-85
2021/07/06 12:44:11;;;;;;;0.60;0.60;;;;;;;;;;4939401;29;20055;-86
2021/07/06 12:47:15;;;;;;;1.02;0.88;;;;;;;;;;4939435;29;20052;-85
2021/07/06 12:50:03;;;;;;;0.75;0.60;;;;;;;;;;4932961;29;20023;-85
2021/07/06 12:52:49;;;;;;;1.90;1.35;;;;;;;;;;4938854;29;20023;-87
2021/07/06 12:55:37;;;;;;;0.88;0.80;;;;;;;;;;4948056;29;20470;-89
2021/07/06 12:58:24;;;;;;;1.05;0.60;;;;;;;;;;4936576;29;20514;-88
2021/07/06 13:01:09;;;;;;;1.40;0.80;;;;;;;;;;4956298;28;20052;-84
2021/07/06 13:34:49;;;;;;;1.27;0.90;;;;;;;;;;4989295;23;20046;-91
2021/07/06 13:37:34;;;;;;;3.00;1.38;;;;;;;;;;4978663;28;20057;-82
2021/07/06 13:40:19;;;;;;;4.82;3.40;;;;;;;;;;4971508;28;20034;-88
2021/07/06 13:43:05;;;;;;;7.22;4.13;;;;;;;;;;4970173;28;20019;-84
2021/07/06 13:45:50;;;;;;;1.75;1.52;;;;;;;;;;4969368;28;20029;-84
2021/07/06 13:48:35;;;;;;;2.28;1.80;;;;;;;;;;4973347;28;20045;-89
2021/07/06 13:51:21;;;;;;;2.22;1.17;;;;;;;;;;4970639;28;20053;-88
2021/07/06 13:54:07;;;;;;;3.33;0.98;;;;;;;;;;4971468;28;20413;-86
2021/07/06 13:56:53;;;;;;;2.03;0.98;;;;;;;;;;4968431;28;20018;-86
2021/07/06 13:59:38;;;;;;;1.90;0.95;;;;;;;;;;4973962;28;20030;-85
2021/07/06 14:02:24;;;;;;;1.45;1.17;;;;;;;;;;4972175;28;20034;-83
2021/07/06 14:05:09;;;;;;;3.38;0.93;;;;;;;;;;4965067;28;20095;-84
2021/07/06 14:07:55;;;;;;;2.60;0.75;;;;;;;;;;4956334;28;20129;-88
2021/07/06 14:10:41;;;;;;;1.15;0.90;;;;;;;;;;4964253;28;20031;-88
2021/07/06 14:13:26;;;;;;;2.22;0.93;;;;;;;;;;4954857;28;20031;-87
2021/07/06 14:16:11;;;;;;;1.90;0.90;;;;;;;;;;4958960;28;20031;-84
2021/07/06 14:18:56;;;;;;;3.22;0.93;;;;;;;;;;4957772;28;20029;-88
2021/07/06 14:21:42;;;;;;;20.40;17.05;;;;;;;;;;4952243;28;20037;-85
2021/07/06 14:24:27;;;;;;;4.70;2.25;;;;;;;;;;4948583;28;20031;-85
2021/07/06 14:27:12;;;;;;;2.38;1.55;;;;;;;;;;4959133;28;20027;-89
2021/07/06 14:29:58;;;;;;;4.10;1.50;;;;;;;;;;4962410;28;20704;-89
2021/07/06 14:32:43;;;;;;;2.53;1.33;;;;;;;;;;4960272;28;20030;-92
2021/07/06 14:35:29;;;;;;;1.85;1.02;;;;;;;;;;4955934;28;20054;-92
2021/07/06 14:38:14;;;;;;;1.17;1.08;;;;;;;;;;4950205;28;20034;-86
2021/07/06 14:41:00;;;;;;;2.22;1.23;;;;;;;;;;4958951;28;20117;-88
2021/07/06 14:43:45;;;;;;;2.83;1.33;;;;;;;;;;4954114;28;20031;-87
2021/07/06 14:46:32;;;;;;;1.20;0.98;;;;;;;;;;4960042;28;20034;-94
2021/07/06 14:49:17;;;;;;;6.43;3.42;;;;;;;;;;4957665;28;20029;-90
2021/07/06 14:55:37;;;;;;;3.42;1.48;;;;;;;;;;4962087;28;20026;-92
2021/07/06 14:58:22;;;;;;;1.20;0.95;;;;;;;;;;4948119;28;20059;-85
2021/07/06 15:01:07;;;;;;;1.13;0.90;;;;;;;;;;4957989;28;20022;-84
2021/07/06 15:03:53;;;;;;;2.70;0.90;;;;;;;;;;4962875;28;20077;-86
2021/07/06 15:06:39;;;;;;;2.17;1.10;;;;;;;;;;4966529;28;20030;-87
2021/07/06 15:09:24;;;;;;;2.67;1.52;;;;;;;;;;4951592;28;20039;-92
2021/07/06 15:12:10;;;;;;;2.33;1.13;;;;;;;;;;4969977;28;20026;-92
2021/07/06 15:14:58;;;;;;;2.03;1.25;;;;;;;;;;4953667;28;20026;-92
2021/07/06 15:17:44;;;;;;;1.52;1.13;;;;;;;;;;4945109;28;20038;-91
2021/07/06 15:20:29;;;;;;;2.75;1.00;;;;;;;;;;4968410;28;20094;-88
2021/07/06 15:23:14;;;;;;;1.23;1.00;;;;;;;;;;4963359;28;20119;-89
2021/07/06 15:26:00;;;;;;;5.90;3.60;;;;;;;;;;4952245;28;20077;-89
2021/07/06 15:28:48;;;;;;;3.13;2.35;;;;;;;;;;4963151;28;20168;-91
2021/07/06 15:31:39;;;;;;;5.05;1.83;;;;;;;;;;4953303;28;20034;-92
2021/07/06 15:34:24;;;;;;;2.30;1.05;;;;;;;;;;4950905;28;20043;-87
2021/07/06 15:37:10;;;;;;;5.25;1.15;;;;;;;;;;4936572;28;20090;-85
2021/07/06 15:39:55;;;;;;;1.25;0.90;;;;;;;;;;4931583;28;20031;-85
2021/07/06 15:42:40;;;;;;;2.15;1.10;;;;;;;;;;4933365;28;20031;-86
2021/07/06 15:45:26;;;;;;;2.65;1.17;;;;;;;;;;4941101;28;20038;-86
2021/07/06 15:48:12;;;;;;;1.52;1.13;;;;;;;;;;4941359;28;20026;-87
2021/07/06 15:50:57;;;;;;;2.30;1.40;;;;;;;;;;4934467;28;20507;-86
2021/07/06 15:53:42;;;;;;;2.13;1.30;;;;;;;;;;4948376;28;20053;-85
2021/07/06 15:56:27;;;;;;;3.72;1.83;;;;;;;;;;4942131;28;20058;-88
2021/07/06 15:59:13;;;;;;;6.90;1.40;;;;;;;;;;4930775;28;20034;-85
2021/07/06 16:02:01;;;;;;;6.15;1.30;;;;;;;;;;4939811;28;20027;-87
2021/07/06 16:04:46;;;;;;;4.20;1.20;;;;;;;;;;4942326;28;20493;-88
2021/07/06 16:07:31;;;;;;;3.70;1.83;;;;;;;;;;4939121;28;20547;-87
2021/07/06 16:10:17;;;;;;;4.13;1.67;;;;;;;;;;4936884;28;20031;-89
2021/07/06 16:13:03;;;;;;;4.05;1.65;;;;;;;;;;4941543;28;20030;-86
2021/07/06 16:15:48;;;;;;;2.78;1.50;;;;;;;;;;4947884;28;20122;-90
2021/07/06 16:18:33;;;;;;;5.85;1.50;;;;;;;;;;4949282;28;20034;-86
2021/07/06 16:21:19;;;;;;;3.13;1.50;;;;;;;;;;4930855;28;20554;-89
2021/07/06 16:24:04;;;;;;;3.97;1.80;;;;;;;;;;4946030;28;20035;-89
2021/07/06 16:26:50;;;;;;;4.97;2.17;;;;;;;;;;4944077;28;20472;-89
2021/07/06 16:29:35;;;;;;;4.22;1.55;;;;;;;;;;4938721;28;20023;-84
2021/07/06 16:32:21;;;;;;;4.95;1.75;;;;;;;;;;4943234;28;20510;-86
2021/07/06 16:35:11;;;;;;;5.28;2.10;;;;;;;;;;4954031;28;20183;-87
2021/07/06 16:37:57;;;;;;;8.20;2.92;;;;;;;;;;4950744;28;20031;-87
2021/07/06 16:40:46;;;;;;;41.63;37.17;;;;;;;;;;4946288;28;20034;-86
2021/07/06 16:43:32;;;;;;;21.13;17.58;;;;;;;;;;4947583;28;20070;-87
2021/07/06 16:46:17;;;;;;;5.78;2.90;;;;;;;;;;4947973;28;20117;-87
2021/07/06 16:49:03;;;;;;;5.57;2.72;;;;;;;;;;4936919;28;20062;-88
2021/07/06 18:00:02;;;;;;;;;;;;;;;;;;4818649;29;20033;-85
2021/07/06 18:06:04;;;;;;;2.35;1.30;;;;;;;;;;4859332;29;20492;-86
2021/07/06 18:08:49;;;;;;;6.00;1.98;;;;;;;;;;4866994;29;20119;-85
2021/07/06 18:11:34;;;;;;;1.75;1.27;;;;;;;;;;4921069;28;20063;-88
2021/07/06 18:14:20;;;;;;;3.03;1.20;;;;;;;;;;4946746;29;20031;-88
2021/07/06 18:17:05;;;;;;;2.63;1.25;;;;;;;;;;4938437;29;20031;-84
2021/07/06 18:19:50;;;;;;;2.28;1.27;;;;;;;;;;4939882;29;20023;-87
2021/07/06 18:22:36;;;;;;;3.50;1.48;;;;;;;;;;4939932;28;20034;-85
2021/07/06 18:25:21;;;;;;;3.53;1.40;;;;;;;;;;4931560;29;20042;-85
2021/07/06 18:28:07;;;;;;;2.28;1.17;;;;;;;;;;4942101;28;20058;-86
2021/07/06 18:30:54;;;;;;;3.40;1.25;;;;;;;;;;4949146;28;20110;-85